Time;durP1;ratioP1;P1;durP2;ratioP2;P2;SDS_P1;SDS_P2;PMS_P1;PMS_P2;Temp;Humidity;BMP_temperature;BMP_pressure;BME280_temperature;BME280_humidity;BME280_pressure;Samples;Min_cycle;Max_cycle;Signal;HPM_P1;HPM_P2
2022/09/30 00:01:28;;;;;;;1.75;1.05;;;23.00;54.60;;;;;;5027177;28;20041;-68
2022/09/30 00:03:56;;;;;;;2.38;1.58;;;23.00;54.60;;;;;;5031208;28;20155;-68
2022/09/30 00:06:28;;;;;;;1.40;1.00;;;23.10;54.60;;;;;;5032027;28;20052;-68
2022/09/30 00:08:56;;;;;;;1.40;1.30;;;23.10;54.60;;;;;;5030519;28;20045;-68
2022/09/30 00:11:27;;;;;;;2.63;1.27;;;23.00;54.60;;;;;;5031111;28;20065;-68
2022/09/30 00:13:56;;;;;;;1.35;1.27;;;23.00;54.60;;;;;;5031392;28;20049;-68
2022/09/30 00:16:26;;;;;;;1.45;0.93;;;23.00;54.60;;;;;;5031069;28;20168;-68
2022/09/30 00:18:55;;;;;;;1.65;1.40;;;23.00;54.60;;;;;;5031666;28;20053;-68
2022/09/30 00:21:22;;;;;;;1.25;1.23;;;23.10;54.60;;;;;;5031714;28;20364;-67
2022/09/30 00:23:50;;;;;;;1.35;1.25;;;23.00;54.50;;;;;;5029961;28;20065;-67
2022/09/30 00:26:19;;;;;;;1.48;0.82;;;23.10;54.50;;;;;;5029736;28;20261;-67
2022/09/30 00:28:52;;;;;;;0.95;0.95;;;23.00;54.40;;;;;;5031386;28;20315;-68
2022/09/30 00:31:20;;;;;;;1.65;0.90;;;23.10;54.40;;;;;;5031434;28;20053;-68
2022/09/30 00:36:44;;;;;;;1.30;1.20;;;23.00;54.30;;;;;;5031111;28;20049;-68
2022/09/30 00:39:18;;;;;;;1.00;0.90;;;23.10;54.40;;;;;;5030677;28;20057;-67
2022/09/30 00:41:48;;;;;;;0.75;0.75;;;23.10;54.40;;;;;;5031281;28;20141;-68
2022/09/30 00:44:49;;;;;;;0.68;0.68;;;23.00;54.30;;;;;;5030644;28;20084;-68
2022/09/30 00:47:48;;;;;;;1.33;1.10;;;23.10;54.30;;;;;;5031711;28;20052;-68
2022/09/30 00:50:33;;;;;;;2.70;1.00;;;23.00;54.30;;;;;;5033584;28;20505;-67
2022/09/30 00:53:07;;;;;;;1.55;0.93;;;23.00;54.30;;;;;;5035540;28;20057;-67
2022/09/30 00:55:58;;;;;;;1.10;1.00;;;23.00;54.30;;;;;;5035488;28;20076;-67
2022/09/30 00:58:48;;;;;;;1.33;1.00;;;23.00;54.30;;;;;;5034134;28;20486;-68
2022/09/30 01:01:17;;;;;;;1.42;1.33;;;23.00;54.30;;;;;;5034083;28;20482;-67
2022/09/30 01:03:50;;;;;;;1.17;1.15;;;23.00;54.30;;;;;;5034571;28;20049;-68
2022/09/30 01:06:20;;;;;;;0.95;0.80;;;23.00;54.30;;;;;;5030782;28;20045;-68
2022/09/30 01:08:48;;;;;;;1.02;1.02;;;23.00;54.30;;;;;;5033544;28;20053;-68
2022/09/30 01:11:15;;;;;;;2.63;1.48;;;23.00;54.30;;;;;;5034781;28;20061;-67
2022/09/30 01:13:48;;;;;;;1.30;1.17;;;23.00;54.30;;;;;;5034328;28;20049;-68
2022/09/30 01:16:42;;;;;;;1.33;0.88;;;23.00;54.30;;;;;;5034639;28;20045;-67
2022/09/30 01:19:46;;;;;;;0.90;0.80;;;23.00;54.30;;;;;;5033563;28;20052;-68
2022/09/30 01:22:28;;;;;;;0.93;0.93;;;23.00;54.30;;;;;;5033425;28;20049;-68
2022/09/30 01:25:30;;;;;;;1.08;0.95;;;23.00;54.30;;;;;;5034884;28;20092;-68
2022/09/30 01:28:36;;;;;;;1.83;0.77;;;23.00;54.30;;;;;;5034077;28;20045;-68
2022/09/30 01:31:43;;;;;;;1.05;0.75;;;23.00;54.30;;;;;;5034652;28;20042;-68
2022/09/30 01:34:25;;;;;;;1.35;0.80;;;23.00;54.30;;;;;;5034305;28;20057;-68
2022/09/30 01:37:22;;;;;;;0.70;0.70;;;23.00;54.30;;;;;;5029806;28;20506;-68
2022/09/30 01:40:22;;;;;;;0.80;0.80;;;23.00;54.30;;;;;;5033210;28;20045;-68
2022/09/30 01:43:00;;;;;;;;;;;23.00;54.30;;;;;;5035359;28;20045;-68
2022/09/30 01:45:36;;;;;;;0.80;0.80;;;23.00;54.30;;;;;;5033798;28;20217;-68
2022/09/30 01:48:38;;;;;;;0.80;0.80;;;23.00;54.30;;;;;;5034484;28;20045;-67
2022/09/30 01:51:19;;;;;;;0.98;0.88;;;23.00;54.30;;;;;;5033611;28;20053;-68
2022/09/30 01:53:55;;;;;;;1.10;0.80;;;23.00;54.30;;;;;;5034472;28;20046;-67
2022/09/30 01:56:40;;;;;;;1.35;1.10;;;23.00;54.90;;;;;;5034530;28;20053;-68
2022/09/30 01:59:22;;;;;;;1.52;0.80;;;23.00;54.40;;;;;;5032403;28;20099;-67
2022/09/30 02:01:57;;;;;;;1.00;0.90;;;23.00;54.40;;;;;;5034120;28;20041;-68
2022/09/30 02:04:33;;;;;;;1.98;0.90;;;23.00;54.40;;;;;;5032162;28;20049;-68
2022/09/30 02:07:06;;;;;;;0.85;0.82;;;22.90;54.40;;;;;;5033631;28;20053;-68
2022/09/30 02:09:47;;;;;;;0.85;0.75;;;23.00;54.50;;;;;;5029011;28;20037;-68
2022/09/30 02:12:19;;;;;;;0.80;0.80;;;23.00;54.40;;;;;;5033638;28;20057;-64
2022/09/30 02:15:07;;;;;;;0.60;0.60;;;23.00;54.40;;;;;;5034144;28;20061;-68
2022/09/30 02:17:45;;;;;;;1.10;1.00;;;23.00;54.50;;;;;;5034190;28;20148;-68
2022/09/30 02:20:25;;;;;;;0.82;0.82;;;22.90;54.40;;;;;;5033895;28;20060;-68
2022/09/30 02:23:00;;;;;;;0.50;0.50;;;22.90;54.40;;;;;;5034059;28;20064;-67
2022/09/30 02:25:37;;;;;;;0.90;0.90;;;22.90;54.40;;;;;;5032114;28;20080;-68
2022/09/30 02:28:07;;;;;;;0.75;0.73;;;22.90;54.40;;;;;;5034080;28;20048;-68
2022/09/30 02:30:38;;;;;;;1.13;0.55;;;22.90;54.40;;;;;;5033329;28;20545;-68
2022/09/30 02:33:11;;;;;;;0.65;0.65;;;23.00;54.40;;;;;;5033596;28;20132;-68
2022/09/30 02:35:47;;;;;;;1.75;0.95;;;23.00;54.40;;;;;;5033325;28;20067;-68
2022/09/30 02:38:18;;;;;;;1.10;0.60;;;23.00;54.30;;;;;;5032411;28;20508;-68
2022/09/30 02:40:51;;;;;;;0.82;0.82;;;23.00;54.30;;;;;;5028852;28;20409;-68
2022/09/30 02:43:20;;;;;;;0.88;0.80;;;23.00;54.30;;;;;;5032926;28;20045;-68
2022/09/30 02:46:20;;;;;;;0.73;0.73;;;23.00;54.20;;;;;;5033192;28;20049;-68
2022/09/30 02:48:50;;;;;;;;;;;23.00;54.20;;;;;;5034233;28;20041;-68
2022/09/30 02:51:26;;;;;;;0.52;0.52;;;23.00;54.20;;;;;;5033233;28;19921;-68
2022/09/30 02:54:19;;;;;;;1.40;0.93;;;23.00;54.70;;;;;;5033010;28;20325;-68
2022/09/30 02:57:17;;;;;;;1.42;0.90;;;23.00;54.20;;;;;;5033263;28;20063;-68
2022/09/30 02:59:47;;;;;;;0.80;0.80;;;23.00;54.20;;;;;;5033139;28;20048;-68
2022/09/30 03:02:14;;;;;;;2.05;0.80;;;23.00;54.20;;;;;;5032715;28;20089;-68
2022/09/30 03:04:44;;;;;;;1.50;0.65;;;23.00;54.20;;;;;;5048231;28;20061;-68
2022/09/30 03:07:11;;;;;;;0.80;0.43;;;23.00;54.20;;;;;;5033011;28;20053;-68
2022/09/30 03:09:39;;;;;;;1.42;0.90;;;23.00;54.20;;;;;;5031620;28;20076;-68
2022/09/30 03:12:38;;;;;;;0.70;0.70;;;23.00;54.20;;;;;;5031562;28;20053;-68
2022/09/30 03:15:45;;;;;;;1.55;1.00;;;23.00;54.10;;;;;;5032117;28;20050;-68
2022/09/30 03:18:26;;;;;;;0.55;0.55;;;23.00;54.10;;;;;;5032781;28;20072;-68
2022/09/30 03:21:25;;;;;;;0.70;0.70;;;22.90;54.10;;;;;;5032376;28;20049;-68
2022/09/30 03:24:30;;;;;;;1.40;1.05;;;23.00;54.10;;;;;;5032816;28;20049;-68
2022/09/30 03:27:39;;;;;;;0.85;0.85;;;23.00;54.10;;;;;;5032401;28;20410;-68
2022/09/30 03:30:10;;;;;;;0.70;0.70;;;22.90;54.10;;;;;;5031253;28;20049;-67
2022/09/30 03:33:08;;;;;;;0.70;0.70;;;22.90;54.10;;;;;;5032467;28;20394;-68
2022/09/30 03:36:00;;;;;;;0.95;0.85;;;22.90;54.10;;;;;;5032452;28;20056;-68
2022/09/30 03:38:55;;;;;;;0.65;0.57;;;22.90;54.10;;;;;;5032309;28;20409;-68
2022/09/30 03:41:30;;;;;;;0.90;0.60;;;22.90;54.10;;;;;;5032198;28;20045;-68
2022/09/30 03:44:17;;;;;;;0.55;0.55;;;23.00;54.20;;;;;;5030265;28;20049;-68
2022/09/30 03:46:50;;;;;;;0.93;0.55;;;22.90;54.20;;;;;;5031822;28;20440;-68
2022/09/30 03:49:30;;;;;;;1.23;0.60;;;23.00;54.20;;;;;;5032181;28;20049;-68
2022/09/30 03:51:59;;;;;;;0.50;0.50;;;23.00;54.20;;;;;;5032016;28;20486;-68
2022/09/30 03:54:26;;;;;;;0.75;0.73;;;22.90;54.10;;;;;;5032163;28;20263;-67
2022/09/30 03:56:53;;;;;;;0.85;0.85;;;22.90;54.10;;;;;;5032086;28;20461;-68
2022/09/30 03:59:26;;;;;;;0.60;0.57;;;22.90;54.10;;;;;;5032161;28;20132;-68
2022/09/30 04:01:56;;;;;;;0.88;0.47;;;23.00;54.10;;;;;;5030933;28;20053;-68
2022/09/30 04:04:23;;;;;;;0.57;0.57;;;22.90;54.10;;;;;;5031860;28;20548;-68
2022/09/30 04:06:50;;;;;;;1.80;0.82;;;22.90;54.10;;;;;;5030366;28;20064;-68
2022/09/30 04:09:18;;;;;;;0.88;0.73;;;22.90;54.10;;;;;;5031578;28;20128;-68
2022/09/30 04:11:45;;;;;;;0.93;0.77;;;22.90;54.20;;;;;;5031092;28;20345;-68
2022/09/30 04:14:12;;;;;;;0.60;0.60;;;22.90;54.20;;;;;;5031752;28;20490;-64
2022/09/30 04:16:39;;;;;;;0.55;0.55;;;22.90;54.20;;;;;;5026639;28;20292;-68
2022/09/30 04:19:06;;;;;;;0.65;0.65;;;22.90;54.20;;;;;;5031371;28;20046;-68
2022/09/30 04:21:33;;;;;;;0.55;0.55;;;22.90;54.20;;;;;;5030570;28;20055;-68
2022/09/30 04:24:00;;;;;;;0.50;0.50;;;22.90;54.30;;;;;;5031637;28;20041;-68
2022/09/30 04:26:27;;;;;;;0.70;0.50;;;22.90;54.30;;;;;;5031494;28;20057;-64
2022/09/30 04:28:57;;;;;;;0.60;0.60;;;22.90;54.20;;;;;;5031116;28;20042;-68
2022/09/30 04:31:24;;;;;;;0.43;0.43;;;22.90;54.30;;;;;;5063219;28;20059;-68
2022/09/30 04:33:51;;;;;;;0.60;0.40;;;22.90;54.20;;;;;;5030427;28;20053;-68
2022/09/30 04:36:19;;;;;;;0.50;0.50;;;22.90;54.30;;;;;;5030958;28;20057;-68
2022/09/30 04:38:46;;;;;;;1.10;0.65;;;22.90;54.20;;;;;;5031508;28;20080;-68
2022/09/30 04:41:16;;;;;;;2.08;1.25;;;22.90;54.20;;;;;;5030975;28;20056;-68
2022/09/30 04:43:45;;;;;;;1.58;0.90;;;22.90;54.20;;;;;;5031462;28;20052;-68
2022/09/30 04:46:14;;;;;;;0.68;0.68;;;22.90;54.20;;;;;;5044892;28;20045;-68
2022/09/30 04:48:44;;;;;;;0.73;0.73;;;22.90;54.20;;;;;;5046587;28;20428;-68
2022/09/30 04:51:13;;;;;;;0.32;0.25;;;22.90;54.30;;;;;;5047893;28;20053;-68
2022/09/30 04:53:41;;;;;;;2.03;0.73;;;22.90;54.30;;;;;;5030731;28;20052;-68
2022/09/30 04:56:09;;;;;;;0.50;0.50;;;23.00;54.30;;;;;;5030377;28;20146;-68
2022/09/30 04:58:36;;;;;;;0.55;0.55;;;22.90;54.30;;;;;;5029665;28;20399;-67
2022/09/30 05:01:09;;;;;;;0.80;0.80;;;22.90;54.90;;;;;;5031456;28;20479;-68
2022/09/30 05:03:37;;;;;;;0.80;0.80;;;23.00;54.40;;;;;;5030692;28;20214;-68
2022/09/30 05:06:05;;;;;;;0.80;0.80;;;22.90;54.40;;;;;;5028937;28;20393;-68
2022/09/30 05:08:32;;;;;;;0.95;0.93;;;22.90;54.40;;;;;;5029599;28;20052;-68
2022/09/30 05:11:03;;;;;;;1.02;1.00;;;22.90;54.40;;;;;;5028007;28;20047;-68
2022/09/30 05:13:33;;;;;;;1.15;1.05;;;22.90;54.50;;;;;;5030560;28;20053;-68
2022/09/30 05:16:00;;;;;;;1.10;1.00;;;22.90;54.50;;;;;;5028643;28;20045;-68
2022/09/30 05:18:28;;;;;;;0.90;0.88;;;22.90;54.50;;;;;;5024702;28;20051;-68
2022/09/30 05:20:57;;;;;;;1.02;1.02;;;22.90;54.50;;;;;;5018852;28;20084;-65
2022/09/30 05:23:25;;;;;;;0.88;0.88;;;22.90;54.60;;;;;;5027183;28;20413;-63
2022/09/30 05:25:53;;;;;;;0.70;0.70;;;23.00;55.10;;;;;;5035489;28;20049;-67
2022/09/30 05:28:20;;;;;;;5.45;1.40;;;22.90;55.10;;;;;;5025696;28;20038;-64
2022/09/30 05:34:27;;;;;;;0.93;0.93;;;23.00;56.10;;;;;;5032200;28;20055;-65
2022/09/30 05:36:55;;;;;;;3.50;0.93;;;23.00;56.10;;;;;;5030367;28;20045;-66
2022/09/30 05:39:22;;;;;;;1.52;1.20;;;23.00;56.10;;;;;;5028914;28;20049;-65
2022/09/30 05:54:15;;;;;;;2.78;0.77;;;23.00;56.40;;;;;;5023775;28;20045;-61
2022/09/30 05:56:43;;;;;;;4.07;1.27;;;23.10;56.60;;;;;;5036859;28;20472;-61
2022/09/30 05:59:10;;;;;;;1.38;1.10;;;23.10;56.50;;;;;;5038539;28;20053;-65
2022/09/30 06:01:37;;;;;;;5.63;1.05;;;23.10;56.40;;;;;;5037859;28;20409;-62
2022/09/30 06:04:04;;;;;;;0.65;0.65;;;23.10;56.30;;;;;;5038334;28;20059;-61
2022/09/30 06:06:31;;;;;;;0.90;0.90;;;23.20;56.20;;;;;;5038372;28;20088;-65
2022/09/30 06:08:59;;;;;;;1.08;0.70;;;23.20;56.20;;;;;;5038725;28;20371;-62
2022/09/30 06:11:26;;;;;;;1.00;1.00;;;23.30;56.30;;;;;;5037165;28;20108;-66
2022/09/30 06:14:18;;;;;;;1.38;0.98;;;23.30;56.40;;;;;;5034648;28;20041;-62
2022/09/30 06:16:46;;;;;;;4.22;0.85;;;23.30;56.30;;;;;;5038166;28;20405;-62
2022/09/30 06:19:13;;;;;;;1.63;0.85;;;23.40;56.20;;;;;;5038701;28;20144;-65
2022/09/30 06:21:40;;;;;;;0.77;0.77;;;23.40;56.20;;;;;;5035648;28;20446;-66
2022/09/30 06:24:11;;;;;;;0.95;0.68;;;23.40;56.10;;;;;;5038404;28;20052;-65
2022/09/30 06:29:44;;;;;;;1.50;0.88;;;23.50;56.20;;;;;;4970879;28;20051;-63
2022/09/30 06:32:12;;;;;;;1.80;0.88;;;23.50;56.10;;;;;;4976476;28;20046;-63
2022/09/30 06:34:39;;;;;;;4.80;1.40;;;23.50;56.00;;;;;;4975187;28;20051;-67
2022/09/30 06:40:37;;;;;;;5.82;1.10;;;23.60;55.90;;;;;;5025169;23;20057;-64
2022/09/30 06:43:05;;;;;;;7.10;1.63;;;23.60;55.70;;;;;;5013711;28;20381;-62
2022/09/30 06:46:25;;;;;;;12.20;1.45;;;23.60;55.70;;;;;;5006980;28;20593;-67
2022/09/30 06:48:58;;;;;;;9.73;1.50;;;23.70;55.70;;;;;;4997121;28;20046;-62
2022/09/30 06:58:45;;;;;;;3.60;1.33;;;23.80;55.00;;;;;;5016287;28;20061;-67
2022/09/30 07:01:13;;;;;;;4.18;1.15;;;23.80;54.90;;;;;;4998427;28;20054;-61
2022/09/30 07:03:43;;;;;;;10.95;1.60;;;23.80;55.00;;;;;;4998046;28;20070;-62
2022/09/30 07:06:13;;;;;;;14.15;2.25;;;23.90;55.40;;;;;;4998158;28;20061;-61
2022/09/30 07:08:40;;;;;;;15.13;1.73;;;23.90;55.60;;;;;;4998153;28;20046;-64
2022/09/30 07:11:15;;;;;;;6.60;1.52;;;23.90;55.60;;;;;;4997472;28;20415;-63
2022/09/30 07:13:44;;;;;;;3.80;1.55;;;23.90;55.60;;;;;;4996360;28;20133;-61
2022/09/30 07:16:17;;;;;;;5.95;1.48;;;24.00;55.80;;;;;;4997569;28;20054;-60
2022/09/30 07:18:45;;;;;;;4.88;2.03;;;24.00;55.80;;;;;;4997753;28;20090;-61
2022/09/30 07:21:14;;;;;;;3.45;1.38;;;24.10;55.80;;;;;;4997079;28;20505;-65
2022/09/30 07:23:46;;;;;;;4.40;1.58;;;24.10;55.90;;;;;;4997348;28;20493;-64
2022/09/30 07:26:16;;;;;;;11.75;2.03;;;24.10;55.70;;;;;;4997297;28;20104;-62
2022/09/30 07:28:44;;;;;;;3.88;1.58;;;24.20;55.30;;;;;;4997536;28;20054;-67
2022/09/30 07:31:15;;;;;;;1.92;1.33;;;24.20;55.00;;;;;;4997348;28;20051;-62
2022/09/30 07:34:07;;;;;;;1.33;1.23;;;24.20;54.90;;;;;;4996549;28;20055;-62
2022/09/30 07:37:17;;;;;;;2.40;1.77;;;24.30;54.70;;;;;;5001532;28;20132;-65
2022/09/30 07:39:47;;;;;;;4.13;1.33;;;24.30;54.30;;;;;;5008896;28;20054;-61
2022/09/30 07:42:20;;;;;;;1.10;1.00;;;24.30;54.20;;;;;;5027437;28;20049;-63
2022/09/30 07:44:50;;;;;;;3.33;1.25;;;24.30;54.20;;;;;;5035403;28;20141;-66
2022/09/30 07:47:19;;;;;;;2.27;1.50;;;24.40;54.30;;;;;;5031351;28;20080;-68
2022/09/30 07:53:27;;;;;;;2.05;1.60;;;24.40;54.70;;;;;;5023133;28;20121;-65
2022/09/30 07:55:54;;;;;;;4.97;2.17;;;24.40;54.10;;;;;;5034225;28;20053;-68
2022/09/30 07:58:21;;;;;;;4.53;1.55;;;24.50;54.20;;;;;;5031122;28;20647;-65
2022/09/30 08:00:49;;;;;;;4.75;1.65;;;24.50;54.10;;;;;;5030713;28;20382;-66
2022/09/30 08:07:25;;;;;;;2.65;1.65;;;24.60;53.70;;;;;;5024751;28;20144;-68
2022/09/30 08:09:52;;;;;;;4.38;1.25;;;24.60;53.70;;;;;;5024309;28;20064;-69
2022/09/30 08:12:19;;;;;;;1.85;1.30;;;24.70;53.50;;;;;;5024656;28;20049;-75
2022/09/30 08:14:46;;;;;;;7.18;1.33;;;24.70;53.40;;;;;;5010673;28;20044;-68
2022/09/30 08:35:04;;;;;;;1.83;1.05;;;25.00;52.70;;;;;;5301013;23;20051;-69
2022/09/30 08:41:52;;;;;;;5.22;1.25;;;25.10;52.50;;;;;;4967182;28;20390;-65
2022/09/30 08:49:15;;;;;;;4.90;1.50;;;25.10;52.20;;;;;;4957417;29;20122;-66
2022/09/30 08:55:53;;;;;;;4.05;1.10;;;25.20;52.30;;;;;;4965881;28;20455;-67
2022/09/30 08:58:27;;;;;;;1.48;1.30;;;25.20;52.30;;;;;;4976563;28;20451;-63
2022/09/30 09:01:05;;;;;;;1.27;1.15;;;25.30;52.30;;;;;;4976535;28;20051;-63
2022/09/30 09:03:33;;;;;;;2.17;1.08;;;25.30;52.20;;;;;;4976648;28;20141;-68
2022/09/30 09:10:22;;;;;;;1.35;1.08;;;25.30;52.10;;;;;;4978115;28;20446;-66
2022/09/30 09:20:37;;;;;;;3.22;1.50;;;25.40;51.60;;;;;;4975427;28;20122;-62
2022/09/30 09:23:09;;;;;;;1.80;1.00;;;25.40;51.50;;;;;;4969839;28;20047;-69
2022/09/30 09:25:36;;;;;;;2.35;1.52;;;25.40;51.50;;;;;;4961390;28;20047;-63
2022/09/30 09:35:00;;;;;;;3.85;1.30;;;25.40;51.70;;;;;;4970813;28;20058;-67
2022/09/30 09:48:14;;;;;;;3.92;2.15;;;25.50;51.60;;;;;;4969155;28;20050;-66
2022/09/30 09:50:55;;;;;;;4.72;1.10;;;25.50;51.50;;;;;;4962509;28;20047;-66
2022/09/30 09:53:51;;;;;;;3.63;0.70;;;25.50;51.40;;;;;;4968540;28;20047;-69
2022/09/30 09:56:20;;;;;;;3.05;1.25;;;25.60;51.50;;;;;;4961511;28;20043;-67
2022/09/30 10:02:31;;;;;;;1.08;0.98;;;25.70;51.10;;;;;;4969807;28;20051;-70
2022/09/30 10:05:03;;;;;;;2.17;0.50;;;25.70;51.00;;;;;;4967440;28;20035;-69
2022/09/30 10:12:16;;;;;;;2.33;0.88;;;25.70;50.70;;;;;;5378720;23;20086;-71
2022/09/30 10:15:11;;;;;;;3.00;1.10;;;25.70;50.70;;;;;;4977235;28;20396;-67
2022/09/30 10:17:39;;;;;;;1.10;0.80;;;25.70;50.60;;;;;;4979084;28;20137;-71
2022/09/30 10:20:31;;;;;;;1.25;0.60;;;25.70;50.70;;;;;;4969834;28;20042;-69
2022/09/30 10:23:17;;;;;;;1.33;0.75;;;25.70;51.00;;;;;;4961739;28;20043;-65
2022/09/30 10:30:16;;;;;;;1.05;0.70;;;25.70;50.10;;;;;;4964347;28;20105;-65
2022/09/30 10:32:43;;;;;;;1.42;0.68;;;25.70;50.30;;;;;;4976669;28;20050;-69
2022/09/30 10:35:22;;;;;;;0.88;0.70;;;25.70;50.30;;;;;;4977914;28;20066;-69
2022/09/30 10:37:53;;;;;;;4.05;0.80;;;25.80;50.20;;;;;;4953003;28;20055;-69
2022/09/30 10:40:26;;;;;;;1.40;0.70;;;25.80;50.20;;;;;;4959653;29;20054;-69
2022/09/30 10:50:16;;;;;;;3.20;0.75;;;25.80;50.10;;;;;;4978595;28;20082;-64
2022/09/30 10:53:02;;;;;;;2.58;0.60;;;25.80;50.20;;;;;;4962592;28;20051;-64
2022/09/30 10:59:30;;;;;;;1.73;1.05;;;25.80;50.00;;;;;;4966667;28;20117;-65
2022/09/30 11:02:15;;;;;;;1.27;0.80;;;25.80;50.20;;;;;;4961939;28;20050;-64
2022/09/30 11:17:32;;;;;;;5.85;0.90;;;25.80;50.00;;;;;;5890754;23;20043;-68
2022/09/30 11:20:13;;;;;;;2.50;1.63;;;25.90;50.10;;;;;;4960305;28;20039;-64
2022/09/30 11:22:59;;;;;;;3.70;1.15;;;25.90;50.20;;;;;;4958286;28;20047;-67
2022/09/30 11:25:46;;;;;;;6.63;1.23;;;25.90;49.80;;;;;;4959389;28;20048;-63
2022/09/30 11:39:09;;;;;;;3.50;1.10;;;26.00;49.80;;;;;;5061943;23;20042;-65
2022/09/30 11:41:47;;;;;;;6.75;1.65;;;26.00;49.70;;;;;;4995657;28;20061;-66
2022/09/30 11:44:34;;;;;;;1.48;1.00;;;26.00;49.60;;;;;;4995304;28;20038;-67
2022/09/30 11:51:24;;;;;;;6.43;1.42;;;26.00;49.60;;;;;;5007349;28;20072;-64
2022/09/30 12:05:44;;;;;;;1.00;0.90;;;26.00;49.00;;;;;;5019295;23;20065;-64
2022/09/30 12:08:25;;;;;;;3.53;0.80;;;26.00;49.40;;;;;;4979699;28;21621;-63
2022/09/30 12:10:59;;;;;;;2.92;0.70;;;26.00;49.20;;;;;;4971147;28;20182;-68
2022/09/30 12:17:18;;;;;;;1.17;1.13;;;26.00;49.40;;;;;;4968938;28;20038;-63
2022/09/30 12:19:50;;;;;;;1.58;1.20;;;25.90;49.30;;;;;;4952680;28;20464;-63
2022/09/30 12:22:35;;;;;;;3.15;1.23;;;25.90;49.20;;;;;;4972562;28;20058;-67
2022/09/30 12:25:11;;;;;;;2.65;1.42;;;25.90;49.50;;;;;;4971583;28;20043;-63
2022/09/30 12:31:41;;;;;;;1.88;1.30;;;25.80;49.70;;;;;;4974871;28;20051;-63
2022/09/30 12:34:47;;;;;;;2.13;1.05;;;25.80;49.70;;;;;;4961156;28;20085;-64
2022/09/30 12:37:54;;;;;;;4.40;0.75;;;25.70;49.60;;;;;;4962848;28;20043;-63
2022/09/30 12:40:45;;;;;;;2.70;0.93;;;25.70;49.80;;;;;;4952369;28;20046;-65
2022/09/30 12:43:58;;;;;;;3.67;0.98;;;25.70;50.30;;;;;;4971577;28;20042;-65
2022/09/30 12:47:02;;;;;;;1.73;1.17;;;25.70;50.20;;;;;;4973189;28;20046;-65
2022/09/30 12:49:31;;;;;;;2.20;1.20;;;25.70;50.80;;;;;;4954968;28;20517;-64
2022/09/30 12:52:20;;;;;;;3.75;0.70;;;25.70;50.50;;;;;;4974366;28;20057;-64
2022/09/30 12:54:56;;;;;;;4.25;0.77;;;25.70;50.50;;;;;;4964106;28;20134;-66
2022/09/30 12:57:29;;;;;;;3.65;0.93;;;25.70;51.00;;;;;;4963806;28;20468;-66
2022/09/30 13:00:03;;;;;;;3.33;1.73;;;25.70;51.60;;;;;;4969020;28;20047;-63
2022/09/30 13:06:22;;;;;;;4.00;1.30;;;25.60;53.40;;;;;;4969975;28;20046;-63
2022/09/30 13:09:19;;;;;;;3.33;1.20;;;25.60;53.30;;;;;;4977586;28;20149;-67
2022/09/30 13:12:12;;;;;;;2.97;0.57;;;25.60;53.20;;;;;;4978073;28;20069;-66
2022/09/30 13:14:44;;;;;;;1.92;0.80;;;25.50;52.80;;;;;;4960619;28;20415;-66
2022/09/30 13:17:25;;;;;;;1.65;0.60;;;25.50;52.60;;;;;;4977695;28;20051;-66
2022/09/30 13:19:56;;;;;;;1.40;0.75;;;25.50;52.20;;;;;;4977726;28;20055;-66
2022/09/30 13:22:41;;;;;;;0.80;0.70;;;25.50;52.00;;;;;;4977924;28;20519;-67
2022/09/30 13:25:13;;;;;;;1.48;0.75;;;25.40;51.60;;;;;;4977450;28;20130;-67
2022/09/30 13:28:04;;;;;;;1.17;0.80;;;25.40;51.60;;;;;;4960522;28;20408;-67
2022/09/30 13:30:33;;;;;;;1.85;0.80;;;25.40;51.50;;;;;;4977703;28;20054;-67
2022/09/30 13:33:25;;;;;;;3.83;0.73;;;25.40;51.40;;;;;;4977437;28;20101;-66
2022/09/30 13:35:57;;;;;;;2.05;0.57;;;25.40;51.00;;;;;;4977664;28;20062;-67
2022/09/30 13:38:39;;;;;;;0.82;0.65;;;25.40;50.80;;;;;;4977530;28;20043;-67
2022/09/30 13:41:23;;;;;;;1.02;0.50;;;25.40;50.70;;;;;;4977235;28;20050;-66
2022/09/30 13:44:05;;;;;;;0.73;0.57;;;25.40;50.60;;;;;;4976130;28;20057;-67
2022/09/30 13:46:53;;;;;;;2.95;0.60;;;25.40;50.60;;;;;;4977537;28;20459;-67
2022/09/30 13:50:00;;;;;;;1.20;0.55;;;25.40;50.40;;;;;;4977473;28;20384;-67
2022/09/30 13:52:34;;;;;;;0.68;0.63;;;25.30;50.30;;;;;;4976765;28;20051;-66
2022/09/30 13:55:10;;;;;;;0.40;0.40;;;25.30;50.30;;;;;;4963149;28;20046;-66
2022/09/30 13:58:03;;;;;;;1.02;0.40;;;25.30;50.30;;;;;;4980745;28;20051;-66
2022/09/30 14:00:52;;;;;;;0.55;0.55;;;25.30;50.20;;;;;;4980707;28;20130;-66
2022/09/30 14:03:58;;;;;;;0.50;0.50;;;25.30;50.50;;;;;;4980517;28;20047;-67
2022/09/30 14:06:59;;;;;;;2.25;0.63;;;25.30;50.60;;;;;;4980695;28;20050;-67
2022/09/30 14:10:06;;;;;;;1.50;0.55;;;25.30;50.50;;;;;;4979539;28;20488;-67
2022/09/30 14:13:02;;;;;;;0.43;0.43;;;25.20;50.40;;;;;;4979619;28;20097;-67
2022/09/30 14:16:09;;;;;;;0.43;0.43;;;25.20;50.50;;;;;;4980065;28;20069;-67
2022/09/30 14:19:01;;;;;;;1.08;0.47;;;25.20;50.60;;;;;;4979310;28;20090;-67
2022/09/30 14:21:52;;;;;;;0.50;0.50;;;25.10;51.10;;;;;;4980667;28;20051;-67
2022/09/30 14:24:25;;;;;;;3.85;0.57;;;25.10;50.60;;;;;;4980324;28;20183;-66
2022/09/30 14:27:15;;;;;;;3.45;0.55;;;25.10;50.70;;;;;;4980184;28;20051;-67
2022/09/30 14:30:08;;;;;;;1.05;0.50;;;25.10;50.70;;;;;;4980196;28;20077;-66
2022/09/30 14:32:56;;;;;;;2.67;0.90;;;25.10;50.80;;;;;;4980066;28;20084;-67
2022/09/30 14:35:33;;;;;;;0.85;0.45;;;25.10;50.80;;;;;;4963224;28;20403;-63
2022/09/30 14:38:17;;;;;;;3.00;0.57;;;25.00;50.80;;;;;;4978647;28;20057;-67
2022/09/30 14:40:55;;;;;;;1.80;1.08;;;25.00;50.80;;;;;;4980469;28;20050;-66
2022/09/30 14:43:27;;;;;;;0.55;0.55;;;25.00;50.90;;;;;;4980134;28;20046;-67
2022/09/30 14:45:56;;;;;;;1.13;0.30;;;25.00;50.90;;;;;;4980131;28;20061;-67
2022/09/30 14:48:32;;;;;;;0.82;0.60;;;25.00;50.90;;;;;;4979620;28;20051;-67
2022/09/30 14:51:13;;;;;;;0.40;0.40;;;24.90;50.90;;;;;;4980810;28;20526;-67
2022/09/30 14:53:51;;;;;;;0.60;0.60;;;24.90;51.00;;;;;;4979979;28;20149;-67
2022/09/30 14:56:21;;;;;;;0.75;0.30;;;24.90;51.00;;;;;;4978971;28;20063;-67
2022/09/30 14:58:52;;;;;;;;;;;24.90;51.10;;;;;;4979282;28;20503;-67
2022/09/30 15:01:24;;;;;;;;;;;24.90;51.10;;;;;;4980007;28;19926;-67
2022/09/30 15:03:56;;;;;;;0.70;0.50;;;24.90;51.10;;;;;;4979636;28;19922;-67
2022/09/30 15:06:26;;;;;;;0.50;0.50;;;24.80;51.10;;;;;;4979035;28;20047;-67
2022/09/30 15:09:03;;;;;;;0.40;0.40;;;24.90;51.20;;;;;;4962341;28;20133;-67
2022/09/30 15:11:32;;;;;;;0.80;0.80;;;24.80;51.70;;;;;;4979575;28;20057;-67
2022/09/30 15:14:12;;;;;;;0.55;0.45;;;24.80;51.20;;;;;;4978801;28;20051;-67
2022/09/30 15:16:52;;;;;;;0.65;0.50;;;24.80;51.20;;;;;;4978159;28;20054;-67
2022/09/30 15:19:24;;;;;;;0.70;0.40;;;24.80;51.30;;;;;;4979622;28;20061;-67
2022/09/30 15:21:54;;;;;;;0.60;0.40;;;24.80;51.30;;;;;;4979473;28;20055;-67
2022/09/30 15:24:24;;;;;;;0.57;0.50;;;24.80;51.30;;;;;;4979176;28;20051;-67
2022/09/30 15:26:52;;;;;;;2.10;0.40;;;24.80;51.40;;;;;;4979163;28;20054;-67
2022/09/30 15:29:19;;;;;;;0.60;0.60;;;24.70;51.30;;;;;;4978957;28;20051;-66
2022/09/30 15:31:54;;;;;;;1.45;0.63;;;24.70;51.40;;;;;;4979304;28;20451;-67
2022/09/30 15:34:24;;;;;;;0.50;0.50;;;24.70;51.40;;;;;;4978870;28;20439;-63
2022/09/30 15:37:05;;;;;;;1.27;0.75;;;24.70;51.40;;;;;;4978973;28;20054;-67
2022/09/30 15:42:44;;;;;;;1.40;0.55;;;24.70;51.50;;;;;;4978248;28;20459;-66
2022/09/30 15:45:32;;;;;;;0.85;0.60;;;24.60;51.50;;;;;;4979154;28;20051;-67
2022/09/30 15:48:32;;;;;;;0.73;0.60;;;24.60;51.50;;;;;;4961767;28;20047;-67
2022/09/30 15:51:00;;;;;;;0.40;0.30;;;24.60;51.60;;;;;;4978953;28;20058;-67
2022/09/30 15:53:46;;;;;;;0.55;0.55;;;24.60;51.60;;;;;;4978891;28;20055;-67
2022/09/30 15:56:34;;;;;;;0.70;0.50;;;24.60;51.60;;;;;;4978605;28;20050;-67
2022/09/30 15:59:08;;;;;;;0.40;0.40;;;24.50;51.60;;;;;;4977603;28;20046;-67
2022/09/30 16:01:38;;;;;;;0.57;0.30;;;24.50;51.70;;;;;;4977358;28;20057;-67
2022/09/30 16:04:23;;;;;;;2.38;0.57;;;24.50;51.80;;;;;;4978266;28;20050;-67
2022/09/30 16:06:56;;;;;;;1.25;0.50;;;24.50;51.80;;;;;;4978632;28;20139;-67
2022/09/30 16:09:34;;;;;;;0.30;0.30;;;24.50;51.80;;;;;;4978692;28;20426;-67
2022/09/30 16:12:13;;;;;;;0.60;0.60;;;24.50;51.90;;;;;;4978475;28;20054;-66
2022/09/30 16:15:05;;;;;;;0.57;0.45;;;24.40;51.90;;;;;;4978161;28;20054;-67
2022/09/30 16:17:36;;;;;;;0.70;0.55;;;24.40;51.90;;;;;;4978252;28;20093;-66
2022/09/30 16:20:21;;;;;;;0.77;0.70;;;24.40;51.90;;;;;;4977425;28;20051;-67
2022/09/30 16:22:53;;;;;;;0.73;0.55;;;24.40;52.00;;;;;;4978363;28;20057;-67
2022/09/30 16:25:27;;;;;;;0.40;0.40;;;24.40;52.00;;;;;;4978529;28;20085;-66
2022/09/30 16:27:59;;;;;;;0.32;0.32;;;24.40;52.10;;;;;;4960759;28;20061;-67
2022/09/30 16:30:27;;;;;;;0.52;0.52;;;24.30;52.20;;;;;;4977392;28;20129;-66
2022/09/30 16:32:58;;;;;;;0.75;0.38;;;24.30;52.00;;;;;;4977828;28;20125;-67
2022/09/30 16:35:27;;;;;;;1.75;0.57;;;24.30;52.10;;;;;;4978133;28;20051;-67
2022/09/30 16:38:03;;;;;;;1.63;0.38;;;24.30;52.10;;;;;;4977872;28;20050;-67